createdAt,value
2022-10-31T00:00:07.382Z,9.61
2022-10-31T00:01:39.440Z,9.51
2022-10-31T00:03:11.107Z,9.74
2022-10-31T00:04:42.749Z,9.73
2022-10-31T00:06:14.429Z,9.73
2022-10-31T00:07:46.056Z,9.80
2022-10-31T00:09:17.704Z,9.77
2022-10-31T00:10:50.694Z,9.81
2022-10-31T00:12:22.340Z,9.83
2022-10-31T00:13:54.006Z,9.78
2022-10-31T00:15:25.624Z,9.64
2022-10-31T00:16:57.218Z,9.68
2022-10-31T00:18:28.843Z,9.71
2022-10-31T00:20:00.470Z,9.61
2022-10-31T00:21:32.134Z,9.57
2022-10-31T00:23:04.167Z,9.73
2022-10-31T00:24:35.788Z,9.72
2022-10-31T00:26:08.777Z,9.82
2022-10-31T00:27:40.358Z,9.78
2022-10-31T00:29:13.739Z,9.77
2022-10-31T00:30:45.417Z,9.80
2022-10-31T00:32:17.004Z,9.88
2022-10-31T00:33:48.626Z,9.90
2022-10-31T00:35:20.241Z,9.81
2022-10-31T00:36:51.877Z,9.77
2022-10-31T00:38:23.597Z,9.76
2022-10-31T00:39:55.180Z,9.74
2022-10-31T00:41:28.245Z,9.67
2022-10-31T00:43:00.185Z,9.76
2022-10-31T00:44:32.090Z,9.74
2022-10-31T00:46:03.868Z,9.87
2022-10-31T00:47:50.314Z,9.90
2022-10-31T00:49:22.033Z,9.87
2022-10-31T00:50:53.654Z,9.81
2022-10-31T00:52:25.273Z,9.86
2022-10-31T00:53:56.906Z,9.91
2022-10-31T00:55:28.502Z,9.94
2022-10-31T00:57:01.489Z,9.92
2022-10-31T00:58:33.132Z,9.98
2022-10-31T01:00:05.356Z,9.85
2022-10-31T01:01:37.118Z,9.89
2022-10-31T01:03:08.895Z,9.89
2022-10-31T01:04:40.537Z,9.93
2022-10-31T01:06:13.095Z,10.02
2022-10-31T01:07:44.715Z,10.01
2022-10-31T01:09:16.343Z,9.86
2022-10-31T01:10:48.005Z,9.90
2022-10-31T01:12:21.007Z,9.86
2022-10-31T01:13:53.272Z,9.73
2022-10-31T01:15:24.896Z,9.87
2022-10-31T01:16:56.539Z,9.93
2022-10-31T01:18:28.227Z,9.91
2022-10-31T01:19:59.826Z,9.95
2022-10-31T01:21:31.433Z,9.89
2022-10-31T01:23:03.065Z,9.93
2022-10-31T01:24:34.714Z,9.90
2022-10-31T01:26:08.409Z,9.92
2022-10-31T01:27:41.397Z,9.95
2022-10-31T01:29:13.004Z,9.84
2022-10-31T01:30:44.641Z,9.83
2022-10-31T01:32:16.252Z,9.88
2022-10-31T01:33:47.983Z,10.00
2022-10-31T01:35:19.649Z,9.87
2022-10-31T01:36:52.360Z,9.78
2022-10-31T01:38:24.266Z,9.82
2022-10-31T01:39:55.942Z,9.87
2022-10-31T01:41:28.776Z,9.88
2022-10-31T01:43:02.190Z,9.86
2022-10-31T01:44:55.635Z,9.91
2022-10-31T01:46:29.734Z,10.01
2022-10-31T01:48:01.539Z,9.95
2022-10-31T01:49:35.197Z,9.93
2022-10-31T01:51:06.963Z,9.95
2022-10-31T01:52:39.466Z,9.91
2022-10-31T01:54:12.415Z,9.90
2022-10-31T01:55:45.204Z,9.84
2022-10-31T01:57:16.874Z,9.79
2022-10-31T01:58:49.860Z,9.79
2022-10-31T02:00:21.617Z,9.91
2022-10-31T02:01:53.323Z,9.86
2022-10-31T02:03:25.001Z,9.85
2022-10-31T02:04:56.602Z,9.96
2022-10-31T02:06:32.067Z,10.01
2022-10-31T02:08:04.992Z,10.01
2022-10-31T02:09:36.718Z,9.90
2022-10-31T02:11:08.583Z,9.87
2022-10-31T02:12:40.225Z,9.91
2022-10-31T02:14:13.202Z,9.99
2022-10-31T02:15:46.070Z,9.89
2022-10-31T02:17:17.748Z,9.76
2022-10-31T02:18:49.376Z,9.86
2022-10-31T02:20:21.985Z,9.86
2022-10-31T02:21:55.704Z,9.91
2022-10-31T02:23:37.184Z,9.96
2022-10-31T02:25:21.745Z,9.92
2022-10-31T02:27:00.206Z,9.83
2022-10-31T02:28:56.232Z,9.83
2022-10-31T02:30:29.935Z,9.77
2022-10-31T02:32:05.318Z,9.77
2022-10-31T02:33:39.300Z,9.74
2022-10-31T02:35:13.116Z,9.68
2022-10-31T02:36:47.627Z,9.64
2022-10-31T02:38:28.093Z,9.63
2022-10-31T02:40:02.629Z,9.66
2022-10-31T02:41:36.413Z,9.76
2022-10-31T02:43:10.089Z,9.84
2022-10-31T02:44:45.458Z,9.87
2022-10-31T02:46:20.445Z,9.93
2022-10-31T02:47:54.092Z,10.03
2022-10-31T02:49:28.027Z,9.99
2022-10-31T02:51:00.916Z,9.97
2022-10-31T02:52:33.537Z,9.98
2022-10-31T02:54:05.282Z,9.96
2022-10-31T02:55:50.516Z,9.85
2022-10-31T02:57:24.318Z,9.77
2022-10-31T02:58:57.220Z,9.75
2022-10-31T03:00:28.966Z,9.82
2022-10-31T03:02:36.899Z,9.76
2022-10-31T03:04:18.855Z,9.64
2022-10-31T03:05:53.739Z,9.74
2022-10-31T03:07:29.276Z,9.88
2022-10-31T03:09:04.191Z,9.87
2022-10-31T03:10:37.615Z,9.83
2022-10-31T03:12:11.487Z,9.82
2022-10-31T03:13:46.998Z,9.84
2022-10-31T03:15:20.532Z,9.91
2022-10-31T03:16:52.743Z,9.98
2022-10-31T03:18:27.210Z,9.86
2022-10-31T03:20:00.250Z,9.98
2022-10-31T03:21:33.923Z,10.02
2022-10-31T03:23:05.911Z,10.08
2022-10-31T03:24:39.351Z,10.01
2022-10-31T03:26:10.936Z,10.01
2022-10-31T03:27:42.543Z,9.98
2022-10-31T03:29:15.669Z,10.01
2022-10-31T03:30:47.292Z,9.93
2022-10-31T03:32:20.704Z,9.96
2022-10-31T03:33:52.322Z,10.09
2022-10-31T03:35:25.421Z,10.01
2022-10-31T03:36:58.335Z,9.91
2022-10-31T03:38:30.004Z,9.94
2022-10-31T03:40:01.953Z,9.89
2022-10-31T03:41:42.626Z,9.85
2022-10-31T03:43:15.986Z,9.80
2022-10-31T03:44:49.753Z,9.67
2022-10-31T03:46:21.539Z,9.66
2022-10-31T03:47:53.350Z,9.53
2022-10-31T03:49:25.004Z,9.65
2022-10-31T03:51:01.297Z,9.75
2022-10-31T03:52:34.853Z,9.89
2022-10-31T03:54:10.087Z,9.74
2022-10-31T03:55:42.748Z,9.69
2022-10-31T03:57:16.124Z,9.83
2022-10-31T03:58:48.857Z,9.65
2022-10-31T04:00:20.504Z,9.59
2022-10-31T04:01:54.157Z,9.58
2022-10-31T04:03:26.801Z,9.64
2022-10-31T04:04:58.403Z,9.80
2022-10-31T04:06:31.355Z,9.70
2022-10-31T04:08:03.617Z,9.70
2022-10-31T04:09:36.662Z,9.78
2022-10-31T04:11:08.277Z,9.73
2022-10-31T04:12:39.909Z,9.76
2022-10-31T04:14:11.544Z,9.64
2022-10-31T04:15:43.147Z,9.78
2022-10-31T04:17:16.762Z,9.82
2022-10-31T04:18:48.388Z,9.88
2022-10-31T04:20:20.195Z,10.03
2022-10-31T04:21:53.122Z,10.06
2022-10-31T04:23:25.939Z,9.99
2022-10-31T04:24:57.603Z,10.06
2022-10-31T04:26:29.278Z,10.06
2022-10-31T04:28:01.367Z,9.98
2022-10-31T04:29:33.125Z,9.94
2022-10-31T04:31:04.950Z,9.99
2022-10-31T04:32:36.561Z,10.08
2022-10-31T04:34:08.437Z,9.79
2022-10-31T04:35:40.060Z,9.68
2022-10-31T04:37:13.063Z,9.81
2022-10-31T04:38:44.680Z,9.94
2022-10-31T04:40:16.275Z,9.80
2022-10-31T04:41:47.918Z,9.65
2022-10-31T04:44:52.102Z,9.57
2022-10-31T04:46:23.706Z,9.64
2022-10-31T04:47:55.309Z,9.63
2022-10-31T04:49:26.942Z,9.80
2022-10-31T04:51:01.743Z,9.73
2022-10-31T04:52:39.768Z,9.79
2022-10-31T04:54:11.419Z,9.78
2022-10-31T04:55:43.020Z,9.79
2022-10-31T04:57:14.649Z,9.75
2022-10-31T04:58:46.298Z,9.87
2022-10-31T05:00:19.061Z,9.92
2022-10-31T05:01:50.772Z,9.94
2022-10-31T05:03:22.573Z,9.93
2022-10-31T05:04:54.204Z,9.65
2022-10-31T05:06:25.814Z,9.62
2022-10-31T05:07:58.819Z,9.67
2022-10-31T05:09:30.457Z,9.67
2022-10-31T05:11:04.418Z,9.82
2022-10-31T05:12:36.438Z,9.81
2022-10-31T05:14:08.246Z,9.61
2022-10-31T05:15:39.903Z,9.77
2022-10-31T05:17:11.501Z,9.77
2022-10-31T05:18:43.234Z,9.66
2022-10-31T05:20:15.425Z,9.60
2022-10-31T05:21:47.043Z,9.66
2022-10-31T05:23:20.055Z,9.67
2022-10-31T05:24:51.660Z,9.77
2022-10-31T05:26:23.247Z,9.73
2022-10-31T05:27:55.325Z,9.64
2022-10-31T05:29:27.076Z,9.74
2022-10-31T05:30:58.660Z,9.67
2022-10-31T05:32:30.690Z,9.71
2022-10-31T05:34:02.430Z,9.79
2022-10-31T05:35:34.127Z,9.78
2022-10-31T05:37:05.780Z,9.77
2022-10-31T05:38:38.804Z,9.73
2022-10-31T05:40:11.554Z,9.71
2022-10-31T05:41:43.189Z,9.66
2022-10-31T05:43:14.917Z,9.59
2022-10-31T05:44:46.581Z,9.53
2022-10-31T05:46:18.236Z,9.59
2022-10-31T05:47:53.568Z,9.56
2022-10-31T05:49:25.218Z,9.68
2022-10-31T05:50:56.811Z,9.73
2022-10-31T05:52:28.431Z,9.65
2022-10-31T05:54:01.447Z,9.56
2022-10-31T05:55:33.201Z,9.75
2022-10-31T05:57:04.845Z,9.66
2022-10-31T05:58:36.492Z,9.62
2022-10-31T06:00:09.756Z,9.55
2022-10-31T06:01:41.388Z,9.61
2022-10-31T06:03:13.098Z,9.63
2022-10-31T06:04:44.819Z,9.68
2022-10-31T06:06:16.518Z,9.63
2022-10-31T06:07:48.136Z,9.68
2022-10-31T06:09:21.131Z,9.75
2022-10-31T06:10:54.737Z,9.75
2022-10-31T06:12:26.379Z,9.78
2022-10-31T06:13:58.037Z,9.78
2022-10-31T06:15:29.655Z,9.58
2022-10-31T06:17:01.232Z,9.70
2022-10-31T06:18:32.848Z,9.78
2022-10-31T06:20:05.514Z,9.77
2022-10-31T06:21:37.129Z,9.74
2022-10-31T06:23:08.714Z,9.84
2022-10-31T06:24:41.745Z,9.81
2022-10-31T06:26:13.410Z,9.77
2022-10-31T06:27:45.011Z,9.89
2022-10-31T06:29:16.651Z,9.87
2022-10-31T06:30:48.333Z,9.83
2022-10-31T06:32:19.915Z,9.76
2022-10-31T06:33:51.686Z,9.69
2022-10-31T06:35:23.317Z,9.72
2022-10-31T06:36:54.936Z,9.76
2022-10-31T06:38:26.837Z,9.49
2022-10-31T06:40:07.980Z,9.63
2022-10-31T06:41:42.695Z,9.67
2022-10-31T06:43:15.828Z,9.61
2022-10-31T06:44:47.831Z,9.78
2022-10-31T06:46:20.448Z,9.83
2022-10-31T06:48:15.411Z,9.88
2022-10-31T06:49:45.416Z,9.83
2022-10-31T06:51:17.384Z,9.96
2022-10-31T06:52:52.769Z,9.98
2022-10-31T06:54:27.048Z,9.85
2022-10-31T06:56:00.359Z,9.83
2022-10-31T06:57:32.300Z,9.81
2022-10-31T06:59:04.202Z,9.85
2022-10-31T07:00:36.075Z,9.97
2022-10-31T07:02:09.720Z,10.06
2022-10-31T07:03:41.720Z,9.96
2022-10-31T07:05:13.796Z,9.93
2022-10-31T07:06:50.911Z,9.89
2022-10-31T07:08:23.701Z,9.87
2022-10-31T07:09:55.623Z,9.84
2022-10-31T07:11:28.914Z,9.85
2022-10-31T07:13:01.851Z,9.72
2022-10-31T07:14:33.900Z,9.69
2022-10-31T07:16:07.768Z,9.58
2022-10-31T07:17:39.802Z,9.67
2022-10-31T07:19:13.125Z,9.69
2022-10-31T07:20:45.340Z,9.65
2022-10-31T07:22:17.241Z,9.81
2022-10-31T07:23:49.789Z,9.80
2022-10-31T07:25:21.711Z,9.75
2022-10-31T07:26:55.131Z,9.64
2022-10-31T07:28:27.376Z,9.73
2022-10-31T07:29:59.205Z,9.85
2022-10-31T07:31:31.320Z,9.82
2022-10-31T07:33:03.289Z,9.77
2022-10-31T07:34:35.203Z,9.77
2022-10-31T07:36:08.046Z,9.82
2022-10-31T07:37:39.911Z,9.92
2022-10-31T07:39:11.787Z,9.91
2022-10-31T07:40:43.704Z,9.90
2022-10-31T07:42:17.064Z,9.92
2022-10-31T07:43:49.193Z,9.86
2022-10-31T07:45:21.562Z,9.79
2022-10-31T07:46:53.161Z,9.86
2022-10-31T07:48:25.085Z,9.83
2022-10-31T07:49:56.827Z,9.89
2022-10-31T07:51:28.643Z,9.96
2022-10-31T07:53:01.417Z,10.10
2022-10-31T07:54:33.187Z,10.09
2022-10-31T07:56:05.240Z,10.22
2022-10-31T07:57:38.348Z,10.21
2022-10-31T07:59:10.142Z,10.18
2022-10-31T08:00:43.228Z,10.19
2022-10-31T08:02:15.063Z,10.09
2022-10-31T08:03:46.995Z,10.10
2022-10-31T08:05:18.724Z,10.14
2022-10-31T08:06:50.543Z,10.29
2022-10-31T08:08:24.694Z,10.31
2022-10-31T08:09:56.455Z,10.24
2022-10-31T08:11:28.131Z,10.21
2022-10-31T08:13:02.147Z,10.33
2022-10-31T08:14:33.781Z,10.25
2022-10-31T08:16:08.476Z,10.28
2022-10-31T08:17:40.084Z,10.20
2022-10-31T08:19:11.699Z,9.99
2022-10-31T08:20:43.733Z,10.13
2022-10-31T08:22:15.345Z,10.22
2022-10-31T08:23:46.944Z,10.27
2022-10-31T08:25:18.668Z,10.36
2022-10-31T08:26:50.287Z,10.48
2022-10-31T08:28:23.351Z,10.33
2022-10-31T08:29:55.020Z,10.23
2022-10-31T08:31:33.102Z,10.35
2022-10-31T08:33:07.187Z,10.29
2022-10-31T08:34:38.800Z,10.06
2022-10-31T08:36:10.428Z,10.09
2022-10-31T08:37:42.423Z,10.14
2022-10-31T08:39:14.089Z,10.24
2022-10-31T08:40:48.949Z,10.15
2022-10-31T08:42:20.563Z,10.27
2022-10-31T08:43:53.625Z,10.44
2022-10-31T08:45:25.300Z,10.43
2022-10-31T08:46:56.956Z,10.38
2022-10-31T08:48:28.635Z,10.18
2022-10-31T08:50:00.263Z,10.11
2022-10-31T08:51:31.855Z,9.99
2022-10-31T08:53:05.608Z,10.22
2022-10-31T08:54:37.799Z,10.29
2022-10-31T08:56:09.439Z,10.29
2022-10-31T08:57:41.165Z,10.18
2022-10-31T08:59:14.323Z,10.06
2022-10-31T09:00:46.299Z,10.13
2022-10-31T09:02:18.056Z,10.18
2022-10-31T09:03:49.831Z,10.23
2022-10-31T09:05:21.412Z,10.15
2022-10-31T09:08:46.341Z,10.12
2022-10-31T09:10:18.103Z,10.19
2022-10-31T09:11:49.726Z,10.22
2022-10-31T09:13:21.780Z,9.85
2022-10-31T09:14:54.947Z,9.82
2022-10-31T09:16:26.634Z,10.01
2022-10-31T09:17:58.492Z,10.11
2022-10-31T09:19:30.423Z,9.99
2022-10-31T09:21:02.083Z,9.98
2022-10-31T09:22:33.712Z,10.09
2022-10-31T09:24:06.277Z,10.06
2022-10-31T09:25:37.935Z,10.23
2022-10-31T09:27:10.026Z,10.31
2022-10-31T09:28:41.712Z,9.97
2022-10-31T09:30:14.999Z,10.05
2022-10-31T09:31:46.630Z,10.17
2022-10-31T09:33:18.386Z,10.20
2022-10-31T09:34:49.984Z,10.20
2022-10-31T09:36:21.589Z,10.40
2022-10-31T09:37:56.493Z,10.52
2022-10-31T09:39:28.094Z,10.50
2022-10-31T09:41:05.706Z,10.48
2022-10-31T09:42:50.303Z,10.41
2022-10-31T09:44:25.666Z,10.42
2022-10-31T09:46:02.970Z,10.47
2022-10-31T09:47:40.760Z,10.40
2022-10-31T09:49:25.240Z,10.38
2022-10-31T09:50:58.756Z,10.39
2022-10-31T09:52:33.829Z,10.38
2022-10-31T09:54:07.136Z,10.28
2022-10-31T09:55:41.330Z,10.38
2022-10-31T09:57:14.816Z,10.47
2022-10-31T09:58:47.364Z,10.52
2022-10-31T10:00:20.481Z,10.39
2022-10-31T10:01:55.612Z,10.37
2022-10-31T10:03:33.964Z,10.56
2022-10-31T10:05:06.547Z,10.37
2022-10-31T10:06:38.745Z,10.53
2022-10-31T10:08:11.829Z,10.57
2022-10-31T10:09:43.432Z,10.38
2022-10-31T10:11:26.474Z,10.20
2022-10-31T10:13:12.436Z,10.09
2022-10-31T10:15:07.730Z,10.38
2022-10-31T10:17:02.495Z,10.34
2022-10-31T10:18:40.410Z,10.56
2022-10-31T10:20:21.051Z,10.52
2022-10-31T10:21:56.898Z,10.53
2022-10-31T10:23:36.708Z,10.59
2022-10-31T10:25:20.990Z,10.52
2022-10-31T10:26:55.796Z,10.59
2022-10-31T10:28:28.789Z,10.59
2022-10-31T10:30:03.338Z,10.71
2022-10-31T10:31:37.831Z,10.70
2022-10-31T10:33:15.595Z,10.71
2022-10-31T10:34:48.821Z,10.62
2022-10-31T10:36:22.655Z,10.66
2022-10-31T10:37:57.739Z,10.83
2022-10-31T10:39:31.580Z,10.78
2022-10-31T10:41:04.661Z,10.89
2022-10-31T10:42:54.741Z,11.10
2022-10-31T10:44:44.815Z,10.94
2022-10-31T10:46:37.672Z,10.71
2022-10-31T10:48:16.247Z,10.94
2022-10-31T10:49:50.882Z,10.76
2022-10-31T10:51:47.046Z,10.83
2022-10-31T10:53:33.202Z,10.56
2022-10-31T10:55:09.935Z,10.71
2022-10-31T10:56:47.461Z,11.03
2022-10-31T10:58:19.083Z,11.19
2022-10-31T10:59:51.051Z,11.25
2022-10-31T11:01:22.771Z,11.39
2022-10-31T11:02:55.084Z,11.49
2022-10-31T11:04:32.520Z,11.49
2022-10-31T11:06:04.608Z,11.53
2022-10-31T11:07:39.559Z,11.54
2022-10-31T11:09:11.880Z,11.50
2022-10-31T11:10:43.487Z,11.32
2022-10-31T11:12:20.820Z,11.14
2022-10-31T11:13:55.264Z,11.32
2022-10-31T11:15:27.088Z,11.31
2022-10-31T11:17:09.714Z,11.23
2022-10-31T11:18:43.234Z,11.25
2022-10-31T11:20:29.193Z,11.28
2022-10-31T11:22:07.145Z,11.28
2022-10-31T11:23:38.800Z,11.33
2022-10-31T11:25:22.449Z,11.39
2022-10-31T11:27:04.577Z,11.39
2022-10-31T11:28:36.290Z,11.39
2022-10-31T11:30:10.698Z,11.17
2022-10-31T11:31:42.411Z,11.15
2022-10-31T11:33:18.053Z,11.39
2022-10-31T11:34:51.614Z,11.35
2022-10-31T11:36:25.932Z,11.44
2022-10-31T11:37:59.901Z,11.44
2022-10-31T11:39:31.695Z,11.42
2022-10-31T11:41:09.701Z,11.52
2022-10-31T11:42:42.573Z,11.23
2022-10-31T11:44:15.930Z,11.00
2022-10-31T11:45:47.537Z,11.08
2022-10-31T11:47:27.998Z,11.02
2022-10-31T11:48:59.604Z,11.04
2022-10-31T11:50:35.331Z,11.00
2022-10-31T11:52:09.232Z,11.18
2022-10-31T11:53:51.321Z,11.30
2022-10-31T11:55:32.228Z,10.96
2022-10-31T11:57:04.133Z,10.95
2022-10-31T11:58:35.811Z,10.88
2022-10-31T12:00:21.597Z,11.01
2022-10-31T12:01:54.046Z,10.89
2022-10-31T12:03:35.150Z,11.00
2022-10-31T12:05:09.140Z,11.14
2022-10-31T12:06:41.479Z,11.09
2022-10-31T12:08:14.526Z,11.08
2022-10-31T12:09:46.225Z,10.99
2022-10-31T12:11:37.335Z,11.21
2022-10-31T12:13:12.633Z,11.44
2022-10-31T12:14:50.587Z,11.43
2022-10-31T12:16:25.934Z,11.62
2022-10-31T12:18:04.490Z,11.70
2022-10-31T12:19:37.934Z,11.52
2022-10-31T12:21:16.255Z,11.45
2022-10-31T12:22:50.458Z,11.48
2022-10-31T12:24:30.655Z,11.43
2022-10-31T12:26:08.517Z,11.56
2022-10-31T12:27:52.574Z,11.70
2022-10-31T12:29:45.183Z,11.68
2022-10-31T12:31:25.179Z,11.50
2022-10-31T12:33:15.704Z,11.43
2022-10-31T12:34:55.387Z,11.67
2022-10-31T12:36:33.938Z,11.78
2022-10-31T12:38:36.099Z,11.88
2022-10-31T12:40:21.125Z,11.60
2022-10-31T12:41:54.185Z,11.73
2022-10-31T12:43:35.645Z,11.90
2022-10-31T12:45:22.203Z,11.83
2022-10-31T12:47:03.228Z,12.01
2022-10-31T12:48:57.557Z,12.22
2022-10-31T12:50:37.588Z,12.53
2022-10-31T12:52:32.288Z,12.34
2022-10-31T12:54:16.925Z,12.40
2022-10-31T12:55:56.865Z,12.47
2022-10-31T12:57:30.803Z,12.56
2022-10-31T12:59:04.100Z,12.48
2022-10-31T13:00:35.707Z,12.56
2022-10-31T13:02:14.144Z,12.18
2022-10-31T13:03:48.091Z,12.14
2022-10-31T13:05:34.850Z,12.28
2022-10-31T13:07:09.296Z,11.88
2022-10-31T13:08:42.759Z,12.32
2022-10-31T13:10:17.583Z,12.33
2022-10-31T13:11:52.789Z,12.33
2022-10-31T13:13:28.269Z,12.98
2022-10-31T13:15:02.405Z,12.98
2022-10-31T13:16:35.567Z,13.54
2022-10-31T13:18:10.982Z,13.46
2022-10-31T13:19:44.117Z,14.12
2022-10-31T13:21:19.429Z,14.23
2022-10-31T13:22:54.100Z,14.12
2022-10-31T13:24:30.780Z,14.77
2022-10-31T13:26:04.330Z,14.53
2022-10-31T13:27:43.071Z,14.75
2022-10-31T13:29:18.539Z,14.04
2022-10-31T13:30:50.189Z,14.03
2022-10-31T13:32:21.887Z,13.86
2022-10-31T13:33:54.584Z,13.32
2022-10-31T13:35:30.444Z,12.98
2022-10-31T13:37:06.462Z,12.83
2022-10-31T13:38:40.154Z,12.88
2022-10-31T13:40:16.383Z,12.89
2022-10-31T13:41:49.103Z,13.00
2022-10-31T13:43:28.401Z,12.84
2022-10-31T13:45:12.469Z,12.98
2022-10-31T13:46:44.212Z,13.08
2022-10-31T13:48:34.855Z,12.60
2022-10-31T13:50:18.248Z,12.64
2022-10-31T13:51:53.505Z,12.19
2022-10-31T13:53:36.841Z,12.59
2022-10-31T13:55:20.563Z,12.60
2022-10-31T13:56:52.647Z,12.73
2022-10-31T13:58:26.575Z,12.53
2022-10-31T14:00:00.282Z,12.26
2022-10-31T14:01:32.863Z,11.78
2022-10-31T14:03:04.630Z,12.27
2022-10-31T14:04:38.824Z,12.10
2022-10-31T14:06:10.888Z,12.36
2022-10-31T14:07:43.749Z,12.13
2022-10-31T14:09:24.527Z,12.51
2022-10-31T14:10:56.180Z,12.00
2022-10-31T14:12:32.065Z,11.87
2022-10-31T14:14:09.931Z,12.23
2022-10-31T14:15:42.523Z,12.12
2022-10-31T14:17:22.734Z,11.89
2022-10-31T14:18:59.762Z,12.17
2022-10-31T14:20:37.829Z,12.41
2022-10-31T14:22:20.617Z,12.49
2022-10-31T14:23:54.221Z,12.44
2022-10-31T14:25:31.907Z,12.21
2022-10-31T14:27:05.320Z,12.23
2022-10-31T14:28:36.987Z,12.19
2022-10-31T14:30:15.775Z,12.26
2022-10-31T14:31:53.514Z,11.99
2022-10-31T14:33:26.469Z,11.80
2022-10-31T14:34:58.124Z,11.74
2022-10-31T14:36:34.342Z,11.88
2022-10-31T14:38:24.205Z,11.93
2022-10-31T14:40:06.495Z,11.89
2022-10-31T14:41:46.926Z,11.54
2022-10-31T14:43:35.657Z,11.26
2022-10-31T14:45:17.974Z,11.56
2022-10-31T14:46:53.445Z,11.90
2022-10-31T14:48:39.365Z,12.07
2022-10-31T14:50:24.262Z,11.95
2022-10-31T14:51:55.944Z,11.80
2022-10-31T14:53:28.604Z,11.79
2022-10-31T14:55:00.214Z,11.53
2022-10-31T14:56:33.254Z,11.45
2022-10-31T14:58:07.025Z,11.56
2022-10-31T14:59:39.339Z,11.70
2022-10-31T15:01:19.823Z,11.42
2022-10-31T15:02:59.215Z,11.65
2022-10-31T15:04:33.491Z,11.87
2022-10-31T15:06:11.050Z,11.76
2022-10-31T15:07:49.869Z,11.83
2022-10-31T15:09:22.781Z,11.93
2022-10-31T15:10:56.448Z,11.99
2022-10-31T15:12:28.995Z,11.81
2022-10-31T15:14:01.023Z,12.00
2022-10-31T15:15:33.929Z,11.88
2022-10-31T15:17:06.928Z,11.56
2022-10-31T15:18:39.237Z,11.52
2022-10-31T15:20:11.936Z,11.53
2022-10-31T15:21:45.884Z,11.65
2022-10-31T15:23:21.375Z,11.81
2022-10-31T15:24:57.163Z,11.69
2022-10-31T15:26:30.605Z,11.80
2022-10-31T15:28:02.442Z,11.82
2022-10-31T15:29:34.349Z,11.87
2022-10-31T15:31:06.234Z,11.66
2022-10-31T15:32:39.204Z,11.82
2022-10-31T15:34:17.753Z,11.62
2022-10-31T15:35:56.784Z,11.30
2022-10-31T15:37:29.250Z,11.16
2022-10-31T15:39:00.951Z,11.37
2022-10-31T15:40:32.620Z,11.32
2022-10-31T15:42:04.264Z,11.03
2022-10-31T15:43:37.410Z,11.39
2022-10-31T15:45:17.994Z,11.34
2022-10-31T15:46:54.416Z,10.83
2022-10-31T15:48:27.648Z,10.79
2022-10-31T15:50:00.151Z,11.07
2022-10-31T15:51:33.949Z,11.22
2022-10-31T15:53:05.991Z,10.94
2022-10-31T15:54:41.368Z,11.05
2022-10-31T15:56:14.190Z,11.04
2022-10-31T15:57:47.029Z,11.18
2022-10-31T15:59:20.807Z,11.14
2022-10-31T16:00:59.221Z,11.23
2022-10-31T16:02:31.040Z,11.41
2022-10-31T16:04:06.349Z,11.28
2022-10-31T16:05:39.012Z,11.32
2022-10-31T16:07:18.741Z,11.33
2022-10-31T16:08:53.584Z,11.45
2022-10-31T16:10:27.005Z,11.02
2022-10-31T16:12:00.397Z,10.94
2022-10-31T16:13:33.009Z,11.06
2022-10-31T16:15:05.757Z,11.10
2022-10-31T16:16:41.711Z,11.18
2022-10-31T16:18:13.341Z,11.24
2022-10-31T16:19:50.484Z,11.27
2022-10-31T16:21:26.595Z,11.37
2022-10-31T16:22:58.694Z,11.37
2022-10-31T16:24:31.654Z,11.36
2022-10-31T16:26:06.531Z,11.49
2022-10-31T16:27:38.291Z,11.38
2022-10-31T16:29:25.604Z,11.32
2022-10-31T16:30:57.593Z,11.18
2022-10-31T16:32:31.377Z,11.13
2022-10-31T16:34:04.779Z,11.27
2022-10-31T16:35:38.389Z,10.92
2022-10-31T16:37:11.146Z,10.80
2022-10-31T16:38:42.816Z,10.81
2022-10-31T16:40:15.044Z,10.78
2022-10-31T16:41:47.565Z,11.04
2022-10-31T16:43:19.824Z,11.23
2022-10-31T16:44:51.448Z,11.18
2022-10-31T16:46:24.438Z,10.83
2022-10-31T16:47:56.404Z,10.94
2022-10-31T16:49:28.060Z,10.98
2022-10-31T16:51:07.995Z,11.13
2022-10-31T16:52:53.972Z,11.10
2022-10-31T16:54:31.307Z,10.92
2022-10-31T16:56:04.103Z,10.90
2022-10-31T16:57:35.756Z,10.76
2022-10-31T16:59:15.675Z,10.86
2022-10-31T17:00:47.941Z,10.69
2022-10-31T17:02:19.866Z,10.69
2022-10-31T17:03:51.634Z,10.80
2022-10-31T17:05:29.918Z,10.87
2022-10-31T17:07:02.888Z,10.84
2022-10-31T17:08:34.569Z,10.90
2022-10-31T17:10:07.180Z,10.95
2022-10-31T17:11:40.983Z,10.93
2022-10-31T17:13:17.919Z,10.75
2022-10-31T17:14:50.536Z,10.82
2022-10-31T17:16:22.129Z,11.02
2022-10-31T17:17:56.859Z,11.02
2022-10-31T17:19:28.499Z,10.75
2022-10-31T17:21:01.523Z,10.97
2022-10-31T17:22:34.563Z,10.76
2022-10-31T17:24:06.941Z,10.79
2022-10-31T17:25:38.904Z,10.38
2022-10-31T17:27:10.632Z,10.24
2022-10-31T17:28:42.366Z,10.42
2022-10-31T17:30:14.125Z,10.33
2022-10-31T17:31:45.775Z,10.39
2022-10-31T17:33:17.579Z,10.20
2022-10-31T17:34:51.698Z,10.10
2022-10-31T17:36:23.339Z,10.45
2022-10-31T17:37:56.320Z,10.55
2022-10-31T17:39:27.940Z,10.54
2022-10-31T17:40:59.642Z,10.58
2022-10-31T17:42:31.388Z,10.39
2022-10-31T17:44:03.108Z,10.38
2022-10-31T17:45:34.700Z,10.45
2022-10-31T17:47:06.331Z,10.41
2022-10-31T17:48:37.982Z,10.40
2022-10-31T17:50:10.046Z,10.47
2022-10-31T17:51:41.987Z,10.49
2022-10-31T17:53:15.063Z,10.34
2022-10-31T17:54:46.676Z,10.20
2022-10-31T17:56:18.336Z,10.13
2022-10-31T17:57:50.030Z,10.23
2022-10-31T17:59:21.978Z,10.48
2022-10-31T18:00:53.765Z,10.35
2022-10-31T18:02:25.556Z,10.34
2022-10-31T18:03:57.437Z,10.24
2022-10-31T18:05:29.064Z,10.29
2022-10-31T18:07:00.713Z,10.32
2022-10-31T18:08:36.335Z,10.39
2022-10-31T18:10:08.952Z,10.21
2022-10-31T18:11:40.575Z,10.36
2022-10-31T18:13:12.342Z,10.12
2022-10-31T18:14:48.323Z,10.13
2022-10-31T18:16:20.309Z,9.62
2022-10-31T18:17:51.919Z,9.91
2022-10-31T18:19:23.762Z,10.11
2022-10-31T18:20:57.413Z,10.12
2022-10-31T18:22:29.583Z,10.11
2022-10-31T18:24:03.012Z,10.04
2022-10-31T18:25:35.108Z,9.93
2022-10-31T18:27:06.793Z,9.97
2022-10-31T18:28:38.422Z,10.00
2022-10-31T18:30:10.784Z,9.80
2022-10-31T18:31:42.756Z,10.05
2022-10-31T18:33:14.373Z,9.55
2022-10-31T18:34:46.033Z,9.61
2022-10-31T18:36:17.741Z,9.44
2022-10-31T18:37:49.363Z,9.42
2022-10-31T18:39:22.430Z,9.47
2022-10-31T18:40:54.083Z,9.51
2022-10-31T18:42:25.751Z,9.64
2022-10-31T18:43:59.017Z,9.41
2022-10-31T18:45:41.505Z,9.86
2022-10-31T18:47:19.191Z,9.82
2022-10-31T18:48:51.042Z,9.52
2022-10-31T18:50:23.546Z,9.13
2022-10-31T18:51:55.166Z,9.57
2022-10-31T18:53:26.826Z,9.72
2022-10-31T18:54:59.794Z,9.57
2022-10-31T18:56:34.354Z,9.81
2022-10-31T18:58:05.961Z,9.67
2022-10-31T18:59:37.580Z,9.50
2022-10-31T19:01:10.180Z,9.62
2022-10-31T19:02:41.976Z,9.75
2022-10-31T19:04:13.616Z,9.22
2022-10-31T19:05:45.209Z,8.98
2022-10-31T19:07:16.814Z,9.17
2022-10-31T19:08:48.428Z,9.35
2022-10-31T19:10:21.426Z,9.55
2022-10-31T19:11:53.073Z,9.66
2022-10-31T19:13:24.766Z,9.56
2022-10-31T19:14:56.486Z,9.52
2022-10-31T19:16:28.276Z,9.53
2022-10-31T19:18:00.475Z,9.56
2022-10-31T19:19:32.117Z,9.34
2022-10-31T19:21:06.949Z,9.29
2022-10-31T19:22:38.552Z,9.21
2022-10-31T19:24:10.172Z,9.22
2022-10-31T19:27:19.764Z,9.25
2022-10-31T19:28:51.502Z,9.40
2022-10-31T19:30:23.319Z,9.49
2022-10-31T19:31:54.985Z,9.45
2022-10-31T19:33:33.373Z,9.48
2022-10-31T19:35:09.280Z,9.51
2022-10-31T19:36:41.040Z,9.58
2022-10-31T19:38:12.662Z,9.62
2022-10-31T19:39:44.551Z,9.60
2022-10-31T19:41:18.781Z,9.73
2022-10-31T19:42:50.777Z,9.77
2022-10-31T19:44:22.591Z,9.74
2022-10-31T19:45:55.311Z,9.72
2022-10-31T19:47:27.027Z,9.78
2022-10-31T19:48:59.091Z,9.81
2022-10-31T19:50:30.749Z,9.87
2022-10-31T19:52:02.426Z,9.91
2022-10-31T19:53:34.096Z,9.93
2022-10-31T19:55:06.331Z,9.99
2022-10-31T19:56:39.409Z,9.97
2022-10-31T19:58:11.058Z,9.93
2022-10-31T19:59:42.717Z,9.97
2022-10-31T20:01:14.975Z,10.01
2022-10-31T20:02:46.649Z,10.01
2022-10-31T20:04:18.250Z,9.98
2022-10-31T20:05:50.635Z,10.06
2022-10-31T20:07:22.291Z,10.06
2022-10-31T20:08:55.665Z,10.07
2022-10-31T20:10:27.330Z,10.06
2022-10-31T20:12:00.585Z,10.07
2022-10-31T20:13:32.803Z,10.10
2022-10-31T20:15:05.094Z,10.10
2022-10-31T20:16:37.052Z,10.05
2022-10-31T20:18:08.871Z,9.98
2022-10-31T20:19:40.897Z,9.93
2022-10-31T20:21:13.933Z,9.97
2022-10-31T20:22:47.226Z,9.97
2022-10-31T20:24:18.870Z,10.11
2022-10-31T20:25:50.716Z,10.11
2022-10-31T20:27:23.686Z,10.12
2022-10-31T20:28:55.458Z,10.13
2022-10-31T20:30:27.777Z,10.14
2022-10-31T20:31:59.388Z,10.10
2022-10-31T20:33:30.965Z,10.15
2022-10-31T20:35:02.548Z,10.03